createdAt,value
2022-09-30T00:01:29.546Z,33.80
2022-09-30T00:03:57.265Z,32.35
2022-09-30T00:06:24.904Z,32.58
2022-09-30T00:08:52.222Z,35.88
2022-09-30T00:11:21.414Z,32.20
2022-09-30T00:13:49.341Z,34.03
2022-09-30T00:16:16.705Z,36.17
2022-09-30T00:18:44.020Z,35.78
2022-09-30T00:21:11.810Z,36.28
2022-09-30T00:23:39.162Z,39.88
2022-09-30T00:26:08.152Z,31.92
2022-09-30T00:28:35.369Z,35.75
2022-09-30T00:31:03.351Z,35.20
2022-09-30T00:33:30.514Z,32.40
2022-09-30T00:35:57.698Z,39.42
2022-09-30T00:38:24.865Z,37.95
2022-09-30T00:40:52.005Z,43.25
2022-09-30T00:43:38.824Z,48.78
2022-09-30T00:46:06.339Z,48.42
2022-09-30T00:48:37.065Z,41.75
2022-09-30T00:51:04.277Z,46.05
2022-09-30T00:53:34.562Z,41.63
2022-09-30T00:56:05.772Z,47.72
2022-09-30T00:58:35.953Z,44.80
2022-09-30T01:01:03.393Z,47.53
2022-09-30T01:03:34.817Z,43.78
2022-09-30T01:06:01.975Z,39.40
2022-09-30T01:08:29.165Z,38.28
2022-09-30T01:10:56.338Z,38.00
2022-09-30T01:13:23.795Z,40.05
2022-09-30T01:16:06.814Z,39.55
2022-09-30T01:18:46.361Z,37.47
2022-09-30T01:21:19.732Z,35.33
2022-09-30T01:23:47.207Z,36.13
2022-09-30T01:26:17.221Z,35.53
2022-09-30T01:28:53.520Z,40.67
2022-09-30T01:31:25.131Z,37.92
2022-09-30T01:33:52.330Z,40.13
2022-09-30T01:36:22.342Z,42.00
2022-09-30T01:39:04.286Z,43.58
2022-09-30T01:41:42.302Z,41.42
2022-09-30T01:44:12.990Z,39.67
2022-09-30T01:46:59.121Z,41.15
2022-09-30T01:49:38.585Z,39.60
2022-09-30T01:52:14.375Z,41.47
2022-09-30T01:54:54.314Z,40.42
2022-09-30T01:57:23.031Z,38.03
2022-09-30T01:59:57.858Z,37.25
2022-09-30T02:02:25.952Z,38.95
2022-09-30T02:04:55.867Z,39.70
2022-09-30T02:07:27.606Z,42.80
2022-09-30T02:10:01.733Z,42.75
2022-09-30T02:12:29.266Z,41.83
2022-09-30T02:15:12.986Z,41.45
2022-09-30T02:17:46.829Z,41.72
2022-09-30T02:20:14.971Z,42.95
2022-09-30T02:22:47.082Z,41.55
2022-09-30T02:25:22.115Z,44.35
2022-09-30T02:27:51.730Z,41.95
2022-09-30T02:30:18.883Z,45.13
2022-09-30T02:32:50.143Z,42.03
2022-09-30T02:35:26.864Z,45.55
2022-09-30T02:37:55.284Z,47.63
2022-09-30T02:40:28.631Z,46.78
2022-09-30T02:42:55.784Z,48.88
2022-09-30T02:45:23.175Z,51.95
2022-09-30T02:48:07.157Z,45.75
2022-09-30T02:50:35.975Z,47.13
2022-09-30T02:53:06.264Z,45.75
2022-09-30T02:55:49.663Z,46.67
2022-09-30T02:58:21.396Z,47.33
2022-09-30T03:00:49.124Z,46.10
2022-09-30T03:03:17.805Z,47.25
2022-09-30T03:05:45.247Z,42.97
2022-09-30T03:08:12.599Z,45.05
2022-09-30T03:10:39.762Z,45.00
2022-09-30T03:13:15.885Z,50.75
2022-09-30T03:15:43.210Z,55.55
2022-09-30T03:18:16.171Z,54.42
2022-09-30T03:21:01.961Z,49.45
2022-09-30T03:23:36.295Z,46.13
2022-09-30T03:26:13.690Z,41.53
2022-09-30T03:28:44.787Z,43.97
2022-09-30T03:31:35.340Z,44.75
2022-09-30T03:34:11.516Z,44.00
2022-09-30T03:36:42.754Z,41.58
2022-09-30T03:39:16.067Z,39.63
2022-09-30T03:41:54.723Z,39.72
2022-09-30T03:44:26.263Z,37.97
2022-09-30T03:47:04.732Z,36.38
2022-09-30T03:49:33.252Z,38.47
2022-09-30T03:52:00.393Z,40.00
2022-09-30T03:54:27.580Z,41.83
2022-09-30T03:56:54.711Z,42.05
2022-09-30T03:59:25.673Z,33.30
2022-09-30T04:01:53.773Z,35.85
2022-09-30T04:04:20.989Z,37.58
2022-09-30T04:06:48.183Z,35.33
2022-09-30T04:09:15.559Z,38.85
2022-09-30T04:11:43.014Z,41.70
2022-09-30T04:14:10.246Z,37.40
2022-09-30T04:16:37.485Z,35.13
2022-09-30T04:19:04.682Z,37.80
2022-09-30T04:21:31.861Z,36.30
2022-09-30T04:23:59.049Z,37.80
2022-09-30T04:26:26.285Z,39.38
2022-09-30T04:28:53.423Z,41.30
2022-09-30T04:31:21.474Z,38.88
2022-09-30T04:33:48.772Z,36.03
2022-09-30T04:36:15.902Z,46.05
2022-09-30T04:38:43.117Z,42.92
2022-09-30T04:41:12.146Z,40.75
2022-09-30T04:43:39.294Z,43.20
2022-09-30T04:46:06.729Z,41.17
2022-09-30T04:48:33.879Z,41.17
2022-09-30T04:51:01.117Z,41.08
2022-09-30T04:53:28.408Z,41.75
2022-09-30T04:56:01.809Z,41.83
2022-09-30T04:58:33.379Z,38.45
2022-09-30T05:01:03.947Z,42.00
2022-09-30T05:03:31.168Z,42.03
2022-09-30T05:05:58.298Z,42.28
2022-09-30T05:08:25.622Z,42.70
2022-09-30T05:10:57.348Z,40.10
2022-09-30T05:13:25.383Z,46.25
2022-09-30T05:15:52.655Z,48.72
2022-09-30T05:18:20.673Z,37.58
2022-09-30T05:20:51.220Z,44.15
2022-09-30T05:23:18.922Z,44.58
2022-09-30T05:25:46.371Z,44.20
2022-09-30T05:28:13.698Z,45.33
2022-09-30T05:30:42.057Z,44.83
2022-09-30T05:33:09.188Z,45.45
2022-09-30T05:35:36.422Z,44.67
2022-09-30T05:38:04.719Z,47.08
2022-09-30T05:40:32.188Z,42.13
2022-09-30T05:42:59.615Z,43.40
2022-09-30T05:45:27.057Z,41.58
2022-09-30T05:47:54.536Z,38.75
2022-09-30T05:50:21.873Z,39.17
2022-09-30T05:52:49.607Z,40.67
2022-09-30T05:55:17.419Z,38.92
2022-09-30T05:57:48.040Z,36.70
2022-09-30T06:00:15.244Z,31.02
2022-09-30T06:02:42.589Z,33.60
2022-09-30T06:05:09.966Z,32.90
2022-09-30T06:07:37.277Z,35.97
2022-09-30T06:10:04.832Z,30.80
2022-09-30T06:12:31.967Z,30.80
2022-09-30T06:14:59.126Z,29.85
2022-09-30T06:17:26.337Z,29.52
2022-09-30T06:19:53.525Z,27.20
2022-09-30T06:22:20.664Z,28.58
2022-09-30T06:24:50.437Z,26.88
2022-09-30T06:27:22.117Z,28.42
2022-09-30T06:29:49.497Z,29.00
2022-09-30T06:32:17.372Z,27.20
2022-09-30T06:34:44.790Z,25.70
2022-09-30T06:37:13.870Z,22.98
2022-09-30T06:39:41.813Z,24.00
2022-09-30T06:42:08.998Z,23.33
2022-09-30T06:44:49.267Z,23.75
2022-09-30T06:47:25.091Z,25.60
2022-09-30T06:49:54.537Z,23.83
2022-09-30T06:52:22.263Z,23.40
2022-09-30T06:54:51.226Z,23.33
2022-09-30T06:57:22.538Z,26.45
2022-09-30T06:59:50.743Z,27.52
2022-09-30T07:02:17.997Z,24.08
2022-09-30T07:04:45.268Z,18.70
2022-09-30T07:07:12.472Z,19.58
2022-09-30T07:09:39.647Z,18.98
2022-09-30T07:12:07.477Z,16.45
2022-09-30T07:14:35.939Z,18.58
2022-09-30T07:17:04.668Z,20.25
2022-09-30T07:19:32.111Z,21.48
2022-09-30T07:22:19.214Z,20.85
2022-09-30T07:24:46.375Z,20.40
2022-09-30T07:27:13.597Z,23.48
2022-09-30T07:30:07.197Z,23.45
2022-09-30T07:32:28.644Z,21.25
2022-09-30T07:34:55.823Z,22.02
2022-09-30T07:37:23.025Z,26.30
2022-09-30T07:39:50.220Z,23.63
2022-09-30T07:42:22.652Z,23.13
2022-09-30T07:44:52.224Z,24.25
2022-09-30T07:47:19.554Z,25.17
2022-09-30T07:49:46.726Z,24.75
2022-09-30T07:52:13.969Z,20.60
2022-09-30T07:54:45.286Z,21.45
2022-09-30T07:57:15.463Z,21.23
2022-09-30T07:59:42.715Z,17.88
2022-09-30T08:02:12.196Z,18.25
2022-09-30T08:04:43.655Z,18.85
2022-09-30T08:07:11.684Z,18.05
2022-09-30T08:09:38.929Z,15.65
2022-09-30T08:12:06.184Z,17.83
2022-09-30T08:14:33.557Z,17.83
2022-09-30T08:17:00.950Z,16.98
2022-09-30T08:19:28.886Z,17.58
2022-09-30T08:21:56.245Z,26.05
2022-09-30T08:24:24.024Z,23.00
2022-09-30T08:26:51.606Z,18.13
2022-09-30T08:29:24.999Z,20.40
2022-09-30T08:32:03.232Z,21.65
2022-09-30T08:34:33.909Z,20.65
2022-09-30T08:37:03.797Z,20.95
2022-09-30T08:39:34.857Z,73.55
2022-09-30T08:42:08.715Z,165.80
2022-09-30T08:44:48.244Z,84.75
2022-09-30T08:47:15.384Z,47.38
2022-09-30T08:50:01.013Z,33.45
2022-09-30T08:52:30.660Z,54.45
2022-09-30T08:55:16.367Z,21.80
2022-09-30T08:57:47.351Z,30.65
2022-09-30T09:00:16.263Z,25.27
2022-09-30T09:02:45.422Z,19.42
2022-09-30T09:05:17.184Z,19.75
2022-09-30T09:08:02.714Z,21.58
2022-09-30T09:10:35.510Z,26.27
2022-09-30T09:13:02.728Z,14.98
2022-09-30T09:15:32.005Z,19.55
2022-09-30T09:18:22.565Z,18.63
2022-09-30T09:21:00.566Z,14.55
2022-09-30T09:23:28.570Z,24.00
2022-09-30T09:25:56.043Z,27.13
2022-09-30T09:28:26.169Z,18.65
2022-09-30T09:30:54.239Z,22.00
2022-09-30T09:33:23.055Z,16.60
2022-09-30T09:35:56.631Z,15.75
2022-09-30T09:38:30.581Z,13.15
2022-09-30T09:41:13.683Z,15.60
2022-09-30T09:43:49.178Z,14.25
2022-09-30T09:46:19.270Z,13.13
2022-09-30T09:48:46.936Z,15.98
2022-09-30T09:51:20.547Z,16.40
2022-09-30T09:53:58.176Z,17.48
2022-09-30T09:56:32.101Z,15.05
2022-09-30T09:59:10.104Z,16.63
2022-09-30T10:01:38.502Z,13.10
2022-09-30T10:04:16.301Z,22.08
2022-09-30T10:06:53.370Z,27.25
2022-09-30T10:09:24.448Z,27.27
2022-09-30T10:11:51.682Z,28.08
2022-09-30T10:14:19.370Z,19.85
2022-09-30T10:16:46.562Z,18.67
2022-09-30T10:19:19.963Z,17.80
2022-09-30T10:21:47.112Z,21.17
2022-09-30T10:24:30.187Z,28.00
2022-09-30T10:26:57.350Z,21.25
2022-09-30T10:29:26.741Z,17.85
2022-09-30T10:31:57.673Z,23.85
2022-09-30T10:34:27.241Z,18.67
2022-09-30T10:36:54.437Z,20.08
2022-09-30T10:39:25.101Z,19.45
2022-09-30T10:41:53.022Z,21.23
2022-09-30T10:44:23.410Z,17.08
2022-09-30T10:46:51.210Z,18.42
2022-09-30T10:49:25.153Z,17.10
2022-09-30T10:51:52.277Z,17.42
2022-09-30T10:54:33.924Z,14.88
2022-09-30T10:57:04.279Z,19.80
2022-09-30T10:59:35.738Z,22.13
2022-09-30T11:02:18.172Z,20.73
2022-09-30T11:05:00.224Z,19.45
2022-09-30T11:07:40.833Z,11.70
2022-09-30T11:10:08.029Z,13.07
2022-09-30T11:13:04.436Z,17.65
2022-09-30T11:15:33.338Z,16.08
2022-09-30T11:18:01.554Z,18.83
2022-09-30T11:20:30.353Z,15.55
2022-09-30T11:23:12.522Z,13.63
2022-09-30T11:25:41.585Z,17.98
2022-09-30T11:28:27.791Z,14.55
2022-09-30T11:30:55.028Z,13.98
2022-09-30T11:33:25.188Z,15.45
2022-09-30T11:35:56.259Z,16.75
2022-09-30T11:38:26.520Z,17.42
2022-09-30T11:40:59.692Z,15.20
2022-09-30T11:43:42.526Z,15.23
2022-09-30T11:46:12.783Z,15.25
2022-09-30T11:48:42.299Z,14.98
2022-09-30T11:51:09.428Z,12.73
2022-09-30T11:53:54.655Z,15.02
2022-09-30T11:56:21.779Z,13.75
2022-09-30T11:58:50.076Z,15.50
2022-09-30T12:01:17.871Z,16.98
2022-09-30T12:03:46.308Z,19.08
2022-09-30T12:06:22.692Z,8.55
2022-09-30T12:08:50.683Z,8.23
2022-09-30T12:11:20.331Z,9.55
2022-09-30T12:13:51.949Z,8.85
2022-09-30T12:16:20.728Z,9.23
2022-09-30T12:18:49.813Z,27.52
2022-09-30T12:21:24.205Z,26.00
2022-09-30T12:23:59.671Z,12.95
2022-09-30T12:26:27.117Z,11.82
2022-09-30T12:29:17.142Z,11.38
2022-09-30T12:31:51.987Z,9.55
2022-09-30T12:34:19.178Z,10.63
2022-09-30T12:36:52.637Z,15.07
2022-09-30T12:39:38.609Z,11.15
2022-09-30T12:42:15.395Z,10.73
2022-09-30T12:44:52.646Z,12.88
2022-09-30T12:47:26.197Z,12.27
2022-09-30T12:49:53.853Z,20.40
2022-09-30T12:52:21.126Z,11.48
2022-09-30T12:54:49.742Z,12.93
2022-09-30T12:57:18.877Z,22.55
2022-09-30T12:59:53.497Z,20.15
2022-09-30T13:02:27.234Z,19.23
2022-09-30T13:04:54.489Z,20.27
2022-09-30T13:07:22.732Z,30.45
2022-09-30T13:09:56.634Z,21.58
2022-09-30T13:12:42.204Z,22.60
2022-09-30T13:15:28.431Z,12.73
2022-09-30T13:17:55.713Z,8.38
2022-09-30T13:20:42.230Z,8.60
2022-09-30T13:23:09.987Z,8.07
2022-09-30T13:25:56.185Z,7.13
2022-09-30T13:28:24.527Z,7.78
2022-09-30T13:30:51.735Z,13.07
2022-09-30T13:33:32.641Z,17.15
2022-09-30T13:36:00.164Z,19.92
2022-09-30T13:38:37.394Z,15.80
2022-09-30T13:41:05.568Z,12.80
2022-09-30T13:43:40.627Z,9.77
2022-09-30T13:46:17.205Z,8.90
2022-09-30T13:48:48.887Z,8.48
2022-09-30T13:51:16.353Z,8.60
2022-09-30T13:53:47.158Z,8.88
2022-09-30T13:56:25.177Z,11.27
2022-09-30T13:59:11.259Z,9.23
2022-09-30T14:01:38.925Z,9.32
2022-09-30T14:04:23.310Z,9.70
2022-09-30T14:07:10.605Z,10.13
2022-09-30T14:10:06.831Z,9.38
2022-09-30T14:13:01.333Z,8.65
2022-09-30T14:15:44.934Z,8.77
2022-09-30T14:18:33.539Z,9.55
2022-09-30T14:21:21.138Z,8.48
2022-09-30T14:23:56.763Z,10.35
2022-09-30T14:26:26.927Z,12.30
2022-09-30T14:28:54.062Z,16.92
2022-09-30T14:31:21.917Z,18.73
2022-09-30T14:33:49.574Z,18.83
2022-09-30T14:36:17.281Z,18.20
2022-09-30T14:38:45.413Z,27.10
2022-09-30T14:41:17.589Z,28.05
2022-09-30T14:43:45.046Z,28.80
2022-09-30T14:46:27.360Z,32.80
2022-09-30T14:48:55.137Z,22.42
2022-09-30T14:51:23.862Z,21.45
2022-09-30T14:53:54.392Z,14.60
2022-09-30T14:56:22.734Z,15.20
2022-09-30T14:58:53.294Z,17.55
2022-09-30T15:01:26.121Z,24.30
2022-09-30T15:03:55.488Z,18.63
2022-09-30T15:06:22.801Z,24.10
2022-09-30T15:08:50.019Z,14.90
2022-09-30T15:11:21.309Z,17.75
2022-09-30T15:13:49.300Z,13.90
2022-09-30T15:16:23.354Z,14.40
2022-09-30T15:18:50.511Z,14.35
2022-09-30T15:21:17.807Z,12.90
2022-09-30T15:23:54.665Z,15.45
2022-09-30T15:26:22.693Z,16.50
2022-09-30T15:28:49.982Z,25.23
2022-09-30T15:31:24.854Z,26.88
2022-09-30T15:34:08.258Z,30.00
2022-09-30T15:36:35.937Z,33.80
2022-09-30T15:39:03.111Z,33.72
2022-09-30T15:41:30.261Z,37.20
2022-09-30T15:44:00.503Z,52.83
2022-09-30T15:46:28.852Z,58.70
2022-09-30T15:48:57.022Z,57.70
2022-09-30T15:51:24.200Z,46.15
2022-09-30T15:54:00.330Z,44.42
2022-09-30T15:56:37.119Z,37.38
2022-09-30T15:59:11.520Z,20.67
2022-09-30T16:01:38.772Z,19.77
2022-09-30T16:04:18.360Z,27.00
2022-09-30T16:06:49.316Z,22.70
2022-09-30T16:09:19.482Z,23.42
2022-09-30T16:12:03.011Z,23.20
2022-09-30T16:14:30.947Z,30.55
2022-09-30T16:16:59.109Z,49.92
2022-09-30T16:19:26.388Z,80.35
2022-09-30T16:21:54.796Z,147.60
2022-09-30T16:24:21.934Z,108.47
2022-09-30T16:26:52.766Z,97.28
2022-09-30T16:29:19.907Z,53.40
2022-09-30T16:31:47.498Z,46.10
2022-09-30T16:34:19.204Z,46.20
2022-09-30T16:36:46.335Z,47.70
2022-09-30T16:39:13.629Z,68.38
2022-09-30T16:41:41.094Z,69.15
2022-09-30T16:44:08.228Z,55.03
2022-09-30T16:46:35.535Z,50.55
2022-09-30T16:49:06.620Z,44.15
2022-09-30T16:51:33.849Z,42.33
2022-09-30T16:54:00.973Z,44.38
2022-09-30T16:56:28.323Z,35.70
2022-09-30T16:58:55.667Z,31.00
2022-09-30T17:01:23.544Z,51.33
2022-09-30T17:03:50.902Z,32.95
2022-09-30T17:06:19.032Z,98.70
2022-09-30T17:08:46.202Z,190.00
2022-09-30T17:11:13.366Z,129.60
2022-09-30T17:13:40.879Z,139.80
2022-09-30T17:16:08.570Z,132.50
2022-09-30T17:18:35.804Z,89.95
2022-09-30T17:21:02.997Z,60.88
2022-09-30T17:23:30.126Z,64.70
2022-09-30T17:25:58.078Z,42.65
2022-09-30T17:28:25.258Z,50.05
2022-09-30T17:30:52.440Z,37.42
2022-09-30T17:33:20.021Z,42.53
2022-09-30T17:35:47.244Z,47.22
2022-09-30T17:38:14.440Z,44.95
2022-09-30T17:41:00.509Z,46.30
2022-09-30T17:43:27.664Z,38.03
2022-09-30T17:45:55.626Z,38.00
2022-09-30T17:48:22.934Z,51.67
2022-09-30T17:50:55.852Z,44.45
2022-09-30T17:53:23.283Z,40.13
2022-09-30T17:56:00.872Z,39.25
2022-09-30T17:58:29.124Z,45.15
2022-09-30T18:00:59.915Z,42.47
2022-09-30T18:03:28.274Z,51.10
2022-09-30T18:05:58.943Z,45.33
2022-09-30T18:08:26.265Z,46.92
2022-09-30T18:10:53.508Z,43.95
2022-09-30T18:13:20.694Z,44.92
2022-09-30T18:15:47.857Z,44.17
2022-09-30T18:18:15.034Z,47.83
2022-09-30T18:20:45.523Z,48.17
2022-09-30T18:23:13.033Z,48.88
2022-09-30T18:25:43.091Z,67.75
2022-09-30T18:28:10.664Z,52.75
2022-09-30T18:30:38.497Z,51.90
2022-09-30T18:33:07.103Z,53.03
2022-09-30T18:35:35.090Z,52.15
2022-09-30T18:38:02.323Z,63.15
2022-09-30T18:40:29.857Z,70.43
2022-09-30T18:43:01.921Z,62.00
2022-09-30T18:45:32.949Z,53.30
2022-09-30T18:48:00.499Z,46.92
2022-09-30T18:50:28.419Z,46.60
2022-09-30T18:52:55.837Z,44.90
2022-09-30T18:55:23.031Z,44.95
2022-09-30T18:57:53.446Z,44.83
2022-09-30T19:00:20.686Z,41.83
2022-09-30T19:02:47.850Z,73.72
2022-09-30T19:05:15.209Z,49.78
2022-09-30T19:08:00.911Z,63.15
2022-09-30T19:10:28.087Z,65.85
2022-09-30T19:12:55.236Z,49.67
2022-09-30T19:15:23.584Z,52.13
2022-09-30T19:17:53.158Z,38.70
2022-09-30T19:20:20.361Z,39.22
2022-09-30T19:22:48.137Z,43.30
2022-09-30T19:25:15.911Z,43.42
2022-09-30T19:27:43.105Z,35.70
2022-09-30T19:30:10.817Z,32.40
2022-09-30T19:32:38.070Z,51.63
2022-09-30T19:35:06.800Z,38.22
2022-09-30T19:37:34.427Z,49.88
2022-09-30T19:40:15.227Z,40.58
2022-09-30T19:42:47.294Z,33.80
2022-09-30T19:45:16.704Z,32.97
2022-09-30T19:47:44.421Z,26.17
2022-09-30T19:50:11.636Z,26.23
2022-09-30T19:52:49.172Z,28.70
2022-09-30T19:55:20.999Z,27.33
2022-09-30T19:57:48.267Z,27.15
2022-09-30T20:00:15.428Z,27.52
2022-09-30T20:02:42.558Z,26.33
2022-09-30T20:05:10.029Z,19.20
2022-09-30T20:07:37.173Z,16.08
2022-09-30T20:10:04.453Z,13.48
2022-09-30T20:12:31.644Z,13.43
2022-09-30T20:15:17.549Z,94.30
2022-09-30T20:17:44.733Z,27.45
2022-09-30T20:20:30.735Z,44.40
2022-09-30T20:23:00.824Z,33.17
2022-09-30T20:25:30.615Z,30.55
2022-09-30T20:27:57.867Z,29.83
2022-09-30T20:30:26.971Z,127.90
2022-09-30T20:32:54.689Z,132.32
2022-09-30T20:35:22.353Z,151.85
2022-09-30T20:37:50.165Z,98.25
2022-09-30T20:40:17.394Z,78.15
2022-09-30T20:42:44.649Z,84.45
2022-09-30T20:45:12.068Z,232.50
2022-09-30T20:47:39.779Z,80.63
2022-09-30T20:50:07.317Z,89.25
2022-09-30T20:52:34.530Z,119.18
2022-09-30T20:55:01.683Z,111.25
2022-09-30T20:57:31.908Z,104.15
2022-09-30T21:00:00.140Z,84.68
2022-09-30T21:02:28.080Z,78.00
2022-09-30T21:04:57.622Z,68.85
2022-09-30T21:07:25.421Z,55.90
2022-09-30T21:09:52.723Z,61.17
2022-09-30T21:12:19.949Z,61.35
2022-09-30T21:14:47.208Z,71.78
2022-09-30T21:17:14.366Z,53.88
2022-09-30T21:19:41.518Z,52.08
2022-09-30T21:22:08.866Z,55.08
2022-09-30T21:24:36.019Z,64.82
2022-09-30T21:27:05.975Z,71.80
2022-09-30T21:29:33.476Z,56.38
2022-09-30T21:32:00.927Z,45.70
2022-09-30T21:34:28.222Z,33.33
2022-09-30T21:36:55.718Z,36.08
2022-09-30T21:39:22.911Z,44.10
2022-09-30T21:41:50.058Z,40.50
2022-09-30T21:44:17.466Z,35.85
2022-09-30T21:46:48.680Z,28.85
2022-09-30T21:49:19.738Z,37.83
2022-09-30T21:51:47.032Z,34.05
2022-09-30T21:54:14.198Z,39.05
2022-09-30T21:56:42.750Z,32.67
2022-09-30T21:59:10.180Z,35.20
2022-09-30T22:01:37.642Z,34.05
2022-09-30T22:04:05.213Z,28.58
2022-09-30T22:06:32.452Z,23.80
2022-09-30T22:09:02.822Z,28.23
2022-09-30T22:11:30.641Z,32.95
2022-09-30T22:13:58.290Z,32.47
2022-09-30T22:16:27.116Z,29.70
2022-09-30T22:18:55.184Z,34.75
2022-09-30T22:21:22.397Z,30.80
2022-09-30T22:23:49.606Z,32.75
2022-09-30T22:26:18.234Z,28.17
2022-09-30T22:28:45.886Z,26.35
2022-09-30T22:31:14.289Z,22.33
2022-09-30T22:34:00.483Z,23.70
2022-09-30T22:36:46.455Z,24.27
2022-09-30T22:39:13.668Z,23.90
2022-09-30T22:41:40.819Z,21.38
2022-09-30T22:44:08.295Z,22.27
2022-09-30T22:46:38.869Z,21.45
2022-09-30T22:49:06.198Z,23.55
2022-09-30T22:51:33.695Z,22.02
2022-09-30T22:54:01.361Z,22.27
2022-09-30T22:56:28.521Z,20.92
2022-09-30T22:58:55.764Z,20.30
2022-09-30T23:01:23.016Z,23.50
2022-09-30T23:03:56.564Z,19.90
2022-09-30T23:06:24.439Z,23.48
2022-09-30T23:08:51.848Z,25.05
2022-09-30T23:11:19.211Z,23.38
2022-09-30T23:13:46.902Z,25.25
2022-09-30T23:16:14.408Z,25.00
2022-09-30T23:18:41.655Z,25.27
2022-09-30T23:21:10.494Z,25.27
2022-09-30T23:23:37.994Z,26.63
2022-09-30T23:26:08.798Z,28.92
2022-09-30T23:28:36.011Z,27.60
2022-09-30T23:31:03.768Z,28.85
2022-09-30T23:33:31.026Z,29.77
2022-09-30T23:36:01.387Z,27.67
2022-09-30T23:38:28.611Z,26.48
2022-09-30T23:40:59.090Z,28.77
2022-09-30T23:43:31.375Z,26.80
2022-09-30T23:45:58.931Z,30.17
2022-09-30T23:48:26.133Z,31.88
2022-09-30T23:50:53.455Z,29.67
2022-09-30T23:53:21.211Z,32.40
2022-09-30T23:56:05.084Z,36.42
2022-09-30T23:58:35.366Z,32.35
